createdAt,value
2023-11-26T00:01:15.492Z,94731.03
2023-11-26T00:03:41.891Z,94730.34
2023-11-26T00:06:08.282Z,94727.88
2023-11-26T00:08:34.644Z,94740.34
2023-11-26T00:11:01.025Z,94734.59
2023-11-26T00:13:27.409Z,94727.19
2023-11-26T00:15:53.767Z,94730.75
2023-11-26T00:18:20.207Z,94731.16
2023-11-26T00:20:46.660Z,94734.72
2023-11-26T00:23:13.130Z,94735.41
2023-11-26T00:25:39.535Z,94736.78
2023-11-26T00:28:05.906Z,94734.03
2023-11-26T00:30:32.270Z,94731.59
2023-11-26T00:32:58.643Z,94736.13
2023-11-26T00:35:25.061Z,94725.69
2023-11-26T00:37:51.481Z,94731.03
2023-11-26T00:40:17.874Z,94730.22
2023-11-26T00:42:44.248Z,94727.06
2023-11-26T00:45:10.665Z,94727.34
2023-11-26T00:47:37.115Z,94729.94
2023-11-26T00:50:03.642Z,94731.19
2023-11-26T00:52:30.036Z,94728.84
2023-11-26T00:54:56.405Z,94724.72
2023-11-26T00:57:22.774Z,94718.28
2023-11-26T00:59:49.158Z,94717.06
2023-11-26T01:02:15.666Z,94724.59
2023-11-26T01:04:42.101Z,94719.09
2023-11-26T01:07:08.500Z,94727.44
2023-11-26T01:09:34.877Z,94716.91
2023-11-26T01:12:01.248Z,94718.97
2023-11-26T01:14:27.651Z,94713.31
2023-11-26T01:16:54.170Z,94716.06
2023-11-26T01:19:20.602Z,94720.03
2023-11-26T01:21:46.974Z,94724.31
2023-11-26T01:24:13.339Z,94723.75
2023-11-26T01:26:39.723Z,94716.22
2023-11-26T01:29:06.114Z,94718.00
2023-11-26T01:31:32.529Z,94722.91
2023-11-26T01:33:58.976Z,94726.34
2023-11-26T01:36:25.354Z,94723.88
2023-11-26T01:38:51.794Z,94724.81
2023-11-26T01:41:18.220Z,94730.03
2023-11-26T01:43:44.598Z,94725.66
2023-11-26T01:46:11.016Z,94725.78
2023-11-26T01:48:37.437Z,94722.09
2023-11-26T01:51:03.818Z,94728.63
2023-11-26T01:53:30.192Z,94721.63
2023-11-26T01:55:56.586Z,94722.47
2023-11-26T01:58:22.972Z,94720.44
2023-11-26T02:00:49.359Z,94718.75
2023-11-26T02:03:15.831Z,94705.91
2023-11-26T02:05:42.291Z,94718.09
2023-11-26T02:08:08.719Z,94722.75
2023-11-26T02:10:35.134Z,94720.69
2023-11-26T02:13:01.504Z,94732.75
2023-11-26T02:15:27.879Z,94736.28
2023-11-26T02:17:54.312Z,94729.59
2023-11-26T02:20:20.753Z,94746.69
2023-11-26T02:22:47.138Z,94743.94
2023-11-26T02:25:13.510Z,94736.41
2023-11-26T02:27:39.911Z,94737.38
2023-11-26T02:30:06.303Z,94732.03
2023-11-26T02:32:32.720Z,94729.97
2023-11-26T02:34:59.144Z,94729.41
2023-11-26T02:37:25.518Z,94731.06
2023-11-26T02:39:51.903Z,94725.03
2023-11-26T02:42:18.292Z,94732.00
2023-11-26T02:44:44.686Z,94726.13
2023-11-26T02:47:11.165Z,94726.91
2023-11-26T02:49:37.564Z,94730.47
2023-11-26T02:52:03.942Z,94728.28
2023-11-26T02:54:30.332Z,94730.50
2023-11-26T02:56:56.735Z,94728.72
2023-11-26T02:59:23.206Z,94725.31
2023-11-26T03:01:49.791Z,94726.00
2023-11-26T03:04:16.271Z,94726.38
2023-11-26T03:06:42.684Z,94717.59
2023-11-26T03:09:09.050Z,94729.22
2023-11-26T03:11:35.441Z,94728.69
2023-11-26T03:14:01.835Z,94728.41
2023-11-26T03:16:28.347Z,94725.38
2023-11-26T03:18:54.782Z,94731.53
2023-11-26T03:21:21.171Z,94730.56
2023-11-26T03:23:47.546Z,94723.72
2023-11-26T03:26:14.078Z,94718.94
2023-11-26T03:28:40.493Z,94731.00
2023-11-26T03:31:06.869Z,94727.00
2023-11-26T03:33:33.291Z,94732.88
2023-11-26T03:35:59.721Z,94732.78
2023-11-26T03:38:26.156Z,94732.72
2023-11-26T03:40:52.627Z,94735.03
2023-11-26T03:43:19.067Z,94730.09
2023-11-26T03:45:45.481Z,94738.13
2023-11-26T03:48:11.888Z,94738.16
2023-11-26T03:50:38.317Z,94730.78
2023-11-26T03:53:04.733Z,94730.69
2023-11-26T03:55:31.137Z,94737.84
2023-11-26T03:57:57.555Z,94743.03
2023-11-26T04:00:23.931Z,94741.78
2023-11-26T04:02:50.413Z,94740.44
2023-11-26T04:05:16.958Z,94741.81
2023-11-26T04:07:43.389Z,94746.31
2023-11-26T04:10:09.825Z,94747.00
2023-11-26T04:12:36.247Z,94739.47
2023-11-26T04:15:04.095Z,94737.47
2023-11-26T04:17:32.212Z,94744.94
2023-11-26T04:19:58.681Z,94741.63
2023-11-26T04:22:25.144Z,94740.13
2023-11-26T04:24:51.566Z,94739.88
2023-11-26T04:27:17.957Z,94742.72
2023-11-26T04:29:44.348Z,94738.84
2023-11-26T04:32:10.751Z,94735.44
2023-11-26T04:34:37.126Z,94742.72
2023-11-26T04:37:03.490Z,94742.88
2023-11-26T04:39:29.865Z,94748.88
2023-11-26T04:41:56.229Z,94744.50
2023-11-26T04:44:22.640Z,94752.69
2023-11-26T04:46:49.069Z,94751.03
2023-11-26T04:49:15.440Z,94746.66
2023-11-26T04:51:41.819Z,94748.31
2023-11-26T04:54:08.198Z,94757.31
2023-11-26T04:56:34.603Z,94742.69
2023-11-26T04:59:00.993Z,94757.44
2023-11-26T05:01:27.431Z,94765.59
2023-11-26T05:03:53.942Z,94760.13
2023-11-26T05:06:20.382Z,94759.53
2023-11-26T05:08:46.762Z,94760.63
2023-11-26T05:11:13.172Z,94757.53
2023-11-26T05:13:39.571Z,94755.94
2023-11-26T05:16:05.953Z,94758.94
2023-11-26T05:18:32.397Z,94748.31
2023-11-26T05:20:58.794Z,94751.34
2023-11-26T05:23:25.272Z,94750.28
2023-11-26T05:25:51.675Z,94753.44
2023-11-26T05:28:19.468Z,94753.81
2023-11-26T05:30:45.976Z,94760.97
2023-11-26T05:33:12.412Z,94753.97
2023-11-26T05:35:38.819Z,94762.03
2023-11-26T05:38:05.342Z,94761.88
2023-11-26T05:40:31.800Z,94774.31
2023-11-26T05:42:58.176Z,94775.38
2023-11-26T05:45:24.570Z,94775.63
2023-11-26T05:47:51.021Z,94774.81
2023-11-26T05:50:17.557Z,94773.84
2023-11-26T05:52:43.972Z,94775.31
2023-11-26T05:55:10.356Z,94777.97
2023-11-26T05:57:36.763Z,94774.25
2023-11-26T06:00:03.178Z,94773.34
2023-11-26T06:02:29.563Z,94775.03
2023-11-26T06:04:55.994Z,94779.16
2023-11-26T06:07:22.383Z,94779.78
2023-11-26T06:09:48.775Z,94775.91
2023-11-26T06:12:15.173Z,94778.84
2023-11-26T06:14:41.560Z,94769.81
2023-11-26T06:17:07.999Z,94776.78
2023-11-26T06:19:34.406Z,94771.94
2023-11-26T06:22:00.805Z,94782.66
2023-11-26T06:24:27.201Z,94769.81
2023-11-26T06:26:53.590Z,94770.63
2023-11-26T06:29:19.979Z,94772.75
2023-11-26T06:31:46.348Z,94769.00
2023-11-26T06:34:12.751Z,94775.63
2023-11-26T06:36:39.144Z,94776.59
2023-11-26T06:39:05.541Z,94777.22
2023-11-26T06:41:31.920Z,94769.31
2023-11-26T06:43:58.286Z,94767.66
2023-11-26T06:46:24.737Z,94767.78
2023-11-26T06:48:51.168Z,94774.38
2023-11-26T06:51:17.579Z,94779.13
2023-11-26T06:53:43.967Z,94784.03
2023-11-26T06:56:10.334Z,94785.81
2023-11-26T06:58:36.712Z,94784.38
2023-11-26T07:01:03.080Z,94787.97
2023-11-26T07:03:29.578Z,94786.56
2023-11-26T07:05:55.983Z,94784.25
2023-11-26T07:08:22.384Z,94789.69
2023-11-26T07:10:48.750Z,94794.63
2023-11-26T07:13:15.131Z,94795.69
2023-11-26T07:15:41.568Z,94795.59
2023-11-26T07:18:07.976Z,94797.78
2023-11-26T07:20:35.536Z,94802.34
2023-11-26T07:23:01.997Z,94802.63
2023-11-26T07:25:28.388Z,94803.00
2023-11-26T07:27:54.765Z,94805.94
2023-11-26T07:30:21.150Z,94805.06
2023-11-26T07:32:47.634Z,94804.03
2023-11-26T07:35:14.030Z,94802.31
2023-11-26T07:37:40.448Z,94805.94
2023-11-26T07:40:06.857Z,94808.41
2023-11-26T07:42:33.274Z,94810.50
2023-11-26T07:44:59.673Z,94799.28
2023-11-26T07:47:26.065Z,94804.69
2023-11-26T07:49:52.446Z,94806.16
2023-11-26T07:52:18.835Z,94794.13
2023-11-26T07:54:45.267Z,94799.84
2023-11-26T07:57:11.700Z,94802.88
2023-11-26T07:59:38.091Z,94810.19
2023-11-26T08:02:04.502Z,94800.69
2023-11-26T08:04:31.068Z,94804.69
2023-11-26T08:06:57.508Z,94807.19
2023-11-26T08:09:23.929Z,94810.66
2023-11-26T08:11:50.302Z,94812.69
2023-11-26T08:14:16.679Z,94821.59
2023-11-26T08:16:43.089Z,94824.66
2023-11-26T08:19:09.502Z,94826.56
2023-11-26T08:21:36.282Z,94828.88
2023-11-26T08:24:02.754Z,94828.16
2023-11-26T08:26:29.298Z,94820.34
2023-11-26T08:28:55.697Z,94822.28
2023-11-26T08:31:22.143Z,94823.00
2023-11-26T08:33:48.607Z,94820.84
2023-11-26T08:36:15.036Z,94823.56
2023-11-26T08:38:41.437Z,94819.72
2023-11-26T08:41:07.830Z,94824.25
2023-11-26T08:43:34.205Z,94820.16
2023-11-26T08:46:00.634Z,94812.84
2023-11-26T08:48:27.089Z,94815.22
2023-11-26T08:50:53.487Z,94816.41
2023-11-26T08:53:19.850Z,94813.13
2023-11-26T08:55:46.249Z,94816.56
2023-11-26T08:58:12.634Z,94814.09
2023-11-26T09:00:39.053Z,94807.38
2023-11-26T09:03:05.465Z,94810.94
2023-11-26T09:05:31.893Z,94813.41
2023-11-26T09:07:58.308Z,94816.31
2023-11-26T09:10:24.690Z,94822.47
2023-11-26T09:12:51.085Z,94824.41
2023-11-26T09:15:17.583Z,94819.88
2023-11-26T09:17:44.015Z,94826.03
2023-11-26T09:20:10.395Z,94821.22
2023-11-26T09:22:36.781Z,94821.94
2023-11-26T09:25:03.155Z,94816.97
2023-11-26T09:27:29.601Z,94818.50
2023-11-26T09:29:56.058Z,94808.75
2023-11-26T09:32:22.536Z,94802.84
2023-11-26T09:34:50.918Z,94806.84
2023-11-26T09:37:19.538Z,94818.34
2023-11-26T09:39:45.947Z,94810.66
2023-11-26T09:42:15.424Z,94809.16
2023-11-26T09:44:42.552Z,94804.22
2023-11-26T09:47:08.924Z,94807.63
2023-11-26T09:49:35.298Z,94797.59
2023-11-26T09:52:01.694Z,94806.38
2023-11-26T09:54:28.098Z,94802.09
2023-11-26T09:56:54.479Z,94808.13
2023-11-26T09:59:20.872Z,94816.94
2023-11-26T10:01:47.309Z,94817.63
2023-11-26T10:04:13.801Z,94814.59
2023-11-26T10:06:40.247Z,94806.72
2023-11-26T10:09:06.643Z,94811.47
2023-11-26T10:11:33.023Z,94806.19
2023-11-26T10:13:59.397Z,94800.72
2023-11-26T10:16:25.796Z,94801.84
2023-11-26T10:18:52.196Z,94811.97
2023-11-26T10:21:18.619Z,94808.28
2023-11-26T10:23:45.118Z,94803.31
2023-11-26T10:26:11.502Z,94808.13
2023-11-26T10:28:37.866Z,94808.53
2023-11-26T10:31:04.311Z,94803.66
2023-11-26T10:33:30.884Z,94803.09
2023-11-26T10:35:59.512Z,94808.25
2023-11-26T10:38:26.190Z,94801.50
2023-11-26T10:40:52.576Z,94793.72
2023-11-26T10:43:18.942Z,94803.81
2023-11-26T10:45:45.383Z,94795.63
2023-11-26T10:48:12.981Z,94790.16
2023-11-26T10:50:40.347Z,94784.84
2023-11-26T10:53:06.746Z,94773.56
2023-11-26T10:55:33.162Z,94776.25
2023-11-26T10:57:59.599Z,94776.75
2023-11-26T11:00:26.045Z,94776.75
2023-11-26T11:02:52.533Z,94762.66
2023-11-26T11:05:18.978Z,94760.75
2023-11-26T11:07:45.412Z,94753.03
2023-11-26T11:10:11.833Z,94755.22
2023-11-26T11:12:38.284Z,94757.50
2023-11-26T11:15:04.650Z,94753.94
2023-11-26T11:17:31.303Z,94760.06
2023-11-26T11:19:57.761Z,94752.94
2023-11-26T11:22:24.125Z,94745.88
2023-11-26T11:24:50.523Z,94756.78
2023-11-26T11:27:16.958Z,94758.63
2023-11-26T11:29:43.358Z,94759.47
2023-11-26T11:32:09.717Z,94759.19
2023-11-26T11:34:36.083Z,94759.44
2023-11-26T11:37:02.582Z,94757.75
2023-11-26T11:39:29.016Z,94754.84
2023-11-26T11:41:55.405Z,94759.91
2023-11-26T11:44:21.781Z,94755.88
2023-11-26T11:46:51.160Z,94758.13
2023-11-26T11:49:18.494Z,94750.28
2023-11-26T11:51:44.891Z,94747.41
2023-11-26T11:54:11.269Z,94750.59
2023-11-26T11:56:37.659Z,94754.03
2023-11-26T11:59:04.044Z,94744.47
2023-11-26T12:01:30.428Z,94740.28
2023-11-26T12:03:56.955Z,94733.84
2023-11-26T12:06:23.416Z,94740.94
2023-11-26T12:08:49.832Z,94731.13
2023-11-26T12:11:16.209Z,94728.53
2023-11-26T12:13:42.592Z,94722.53
2023-11-26T12:16:09.037Z,94714.09
2023-11-26T12:18:35.486Z,94724.34
2023-11-26T12:21:01.881Z,94710.94
2023-11-26T12:23:28.264Z,94714.75
2023-11-26T12:25:54.648Z,94712.56
2023-11-26T12:28:21.024Z,94711.97
2023-11-26T12:30:47.467Z,94723.78
2023-11-26T12:33:13.875Z,94714.97
2023-11-26T12:35:40.459Z,94710.53
2023-11-26T12:38:06.870Z,94703.00
2023-11-26T12:40:33.243Z,94707.72
2023-11-26T12:42:59.718Z,94710.88
2023-11-26T12:45:26.187Z,94706.50
2023-11-26T12:47:52.969Z,94697.84
2023-11-26T12:50:19.465Z,94706.22
2023-11-26T12:52:45.844Z,94698.22
2023-11-26T12:55:12.211Z,94694.50
2023-11-26T12:57:38.650Z,94703.66
2023-11-26T13:00:05.031Z,94696.31
2023-11-26T13:02:31.453Z,94693.69
2023-11-26T13:04:57.862Z,94697.97
2023-11-26T13:07:24.231Z,94696.06
2023-11-26T13:09:50.703Z,94696.53
2023-11-26T13:12:20.299Z,94690.75
2023-11-26T13:14:46.840Z,94694.53
2023-11-26T13:17:13.300Z,94690.47
2023-11-26T13:19:39.695Z,94688.06
2023-11-26T13:22:06.078Z,94693.47
2023-11-26T13:24:32.481Z,94676.00
2023-11-26T13:26:58.893Z,94671.41
2023-11-26T13:29:25.274Z,94667.13
2023-11-26T13:31:51.653Z,94666.97
2023-11-26T13:34:18.146Z,94661.94
2023-11-26T13:36:44.627Z,94660.47
2023-11-26T13:39:11.016Z,94656.72
2023-11-26T13:41:37.393Z,94653.13
2023-11-26T13:44:03.778Z,94650.16
2023-11-26T13:46:30.208Z,94646.72
2023-11-26T13:48:56.628Z,94639.41
2023-11-26T13:51:23.075Z,94644.81
2023-11-26T13:53:49.490Z,94644.31
2023-11-26T13:56:15.859Z,94637.94
2023-11-26T13:58:42.293Z,94641.53
2023-11-26T14:01:08.794Z,94636.66
2023-11-26T14:03:35.434Z,94639.09
2023-11-26T14:06:01.872Z,94637.94
2023-11-26T14:08:28.255Z,94632.22
2023-11-26T14:10:54.633Z,94649.41
2023-11-26T14:13:21.008Z,94642.22
2023-11-26T14:15:47.386Z,94636.13
2023-11-26T14:18:13.851Z,94645.44
2023-11-26T14:20:40.316Z,94639.88
2023-11-26T14:23:06.695Z,94643.97
2023-11-26T14:25:33.060Z,94643.44
2023-11-26T14:27:59.475Z,94640.59
2023-11-26T14:30:25.925Z,94654.56
2023-11-26T14:32:52.366Z,94644.63
2023-11-26T14:35:18.797Z,94650.81
2023-11-26T14:37:45.166Z,94646.41
2023-11-26T14:40:11.555Z,94649.19
2023-11-26T14:42:38.289Z,94644.78
2023-11-26T14:45:04.729Z,94641.81
2023-11-26T14:47:31.145Z,94645.72
2023-11-26T14:49:57.566Z,94643.06
2023-11-26T14:52:23.926Z,94637.81
2023-11-26T14:54:50.322Z,94647.19
2023-11-26T14:57:16.689Z,94646.53
2023-11-26T14:59:43.078Z,94652.22
2023-11-26T15:02:09.521Z,94646.09
2023-11-26T15:04:35.981Z,94642.50
2023-11-26T15:07:02.394Z,94642.63
2023-11-26T15:09:28.850Z,94634.78
2023-11-26T15:11:55.288Z,94642.28
2023-11-26T15:14:21.695Z,94638.03
2023-11-26T15:16:48.177Z,94639.16
2023-11-26T15:19:14.567Z,94638.78
2023-11-26T15:21:40.966Z,94644.50
2023-11-26T15:24:07.369Z,94638.59
2023-11-26T15:26:33.768Z,94643.72
2023-11-26T15:29:00.188Z,94648.28
2023-11-26T15:31:26.571Z,94646.22
2023-11-26T15:33:53.038Z,94643.94
2023-11-26T15:36:19.488Z,94654.91
2023-11-26T15:38:45.863Z,94652.06
2023-11-26T15:41:12.236Z,94652.53
2023-11-26T15:43:38.611Z,94646.16
2023-11-26T15:46:05.047Z,94645.34
2023-11-26T15:48:31.523Z,94648.88
2023-11-26T15:50:57.963Z,94642.47
2023-11-26T15:53:24.396Z,94651.72
2023-11-26T15:55:50.787Z,94649.88
2023-11-26T15:58:17.154Z,94648.72
2023-11-26T16:00:43.555Z,94647.97
2023-11-26T16:03:09.982Z,94650.38
2023-11-26T16:05:36.390Z,94644.97
2023-11-26T16:08:02.746Z,94641.75
2023-11-26T16:10:29.119Z,94637.00
2023-11-26T16:12:55.496Z,94639.63
2023-11-26T16:15:21.872Z,94637.22
2023-11-26T16:17:48.284Z,94636.25
2023-11-26T16:20:14.665Z,94629.75
2023-11-26T16:22:41.042Z,94634.31
2023-11-26T16:25:07.465Z,94627.91
2023-11-26T16:27:33.871Z,94623.44
2023-11-26T16:30:00.663Z,94623.28
2023-11-26T16:32:27.676Z,94623.28
2023-11-26T16:34:54.049Z,94621.13
2023-11-26T16:37:20.430Z,94623.22
2023-11-26T16:39:46.854Z,94627.75
2023-11-26T16:42:13.258Z,94637.00
2023-11-26T16:44:39.649Z,94639.38
2023-11-26T16:47:06.070Z,94638.38
2023-11-26T16:49:32.472Z,94631.84
2023-11-26T16:51:58.910Z,94635.13
2023-11-26T16:54:25.334Z,94628.28
2023-11-26T16:56:51.730Z,94622.97
2023-11-26T16:59:18.107Z,94636.59
2023-11-26T17:01:44.557Z,94637.19
2023-11-26T17:04:11.009Z,94633.88
2023-11-26T17:06:37.437Z,94634.84
2023-11-26T17:09:03.848Z,94633.59
2023-11-26T17:11:30.223Z,94641.53
2023-11-26T17:13:56.621Z,94629.78
2023-11-26T17:16:23.145Z,94635.97
2023-11-26T17:18:49.984Z,94636.22
2023-11-26T17:21:16.381Z,94637.81
2023-11-26T17:23:47.435Z,94638.06
2023-11-26T17:26:16.835Z,94642.72
2023-11-26T17:28:43.212Z,94633.09
2023-11-26T17:31:09.690Z,94633.09
2023-11-26T17:33:36.129Z,94627.22
2023-11-26T17:36:02.507Z,94629.00
2023-11-26T17:38:28.870Z,94630.25
2023-11-26T17:40:55.259Z,94633.00
2023-11-26T17:43:21.684Z,94621.63
2023-11-26T17:45:48.224Z,94630.59
2023-11-26T17:48:14.664Z,94632.16
2023-11-26T17:50:41.061Z,94640.72
2023-11-26T17:53:10.715Z,94639.66
2023-11-26T17:55:37.638Z,94634.44
2023-11-26T17:58:04.259Z,94621.94
2023-11-26T18:00:30.794Z,94624.69
2023-11-26T18:02:57.176Z,94630.50
2023-11-26T18:05:23.572Z,94633.81
2023-11-26T18:07:49.948Z,94641.66
2023-11-26T18:10:16.336Z,94632.88
2023-11-26T18:12:42.752Z,94635.06
2023-11-26T18:15:09.152Z,94633.56
2023-11-26T18:17:35.537Z,94633.72
2023-11-26T18:20:01.964Z,94633.44
2023-11-26T18:22:28.360Z,94631.94
2023-11-26T18:24:54.758Z,94629.06
2023-11-26T18:27:21.161Z,94628.09
2023-11-26T18:29:47.569Z,94636.22
2023-11-26T18:32:13.945Z,94637.84
2023-11-26T18:34:40.323Z,94646.75
2023-11-26T18:37:06.750Z,94643.84
2023-11-26T18:39:33.150Z,94637.56
2023-11-26T18:41:59.544Z,94634.97
2023-11-26T18:44:25.928Z,94638.97
2023-11-26T18:46:52.334Z,94638.53
2023-11-26T18:49:18.719Z,94648.25
2023-11-26T18:51:45.128Z,94649.75
2023-11-26T18:54:11.545Z,94653.91
2023-11-26T18:56:37.924Z,94656.63
2023-11-26T18:59:04.322Z,94653.59
2023-11-26T19:01:30.737Z,94651.03
2023-11-26T19:03:57.176Z,94640.34
2023-11-26T19:06:23.573Z,94644.72
2023-11-26T19:08:49.971Z,94642.00
2023-11-26T19:11:16.374Z,94641.28
2023-11-26T19:13:42.917Z,94629.09
2023-11-26T19:16:09.373Z,94627.91
2023-11-26T19:18:35.987Z,94639.13
2023-11-26T19:21:02.387Z,94637.72
2023-11-26T19:23:29.809Z,94627.63
2023-11-26T19:25:56.224Z,94628.97
2023-11-26T19:28:22.619Z,94615.69
2023-11-26T19:30:49.024Z,94619.81
2023-11-26T19:33:15.487Z,94619.38
2023-11-26T19:35:41.906Z,94618.72
2023-11-26T19:38:08.281Z,94621.31
2023-11-26T19:40:37.351Z,94620.63
2023-11-26T19:43:05.281Z,94619.09
2023-11-26T19:45:31.696Z,94614.03
2023-11-26T19:47:58.150Z,94610.47
2023-11-26T19:50:24.550Z,94608.84
2023-11-26T19:52:50.931Z,94612.13
2023-11-26T19:55:17.355Z,94607.19
2023-11-26T19:57:43.816Z,94612.53
2023-11-26T20:00:10.205Z,94617.88
2023-11-26T20:02:36.684Z,94614.19
2023-11-26T20:05:03.190Z,94612.78
2023-11-26T20:07:29.608Z,94606.91
2023-11-26T20:09:56.048Z,94611.00
2023-11-26T20:12:24.181Z,94623.03
2023-11-26T20:14:52.452Z,94616.91
2023-11-26T20:17:18.911Z,94610.91
2023-11-26T20:19:45.384Z,94609.66
2023-11-26T20:22:11.857Z,94604.56
2023-11-26T20:24:38.355Z,94605.50
2023-11-26T20:27:04.797Z,94606.47
2023-11-26T20:29:31.176Z,94599.09
2023-11-26T20:31:57.557Z,94593.38
2023-11-26T20:34:23.939Z,94590.06
2023-11-26T20:36:50.362Z,94585.00
2023-11-26T20:39:16.761Z,94589.00
2023-11-26T20:41:43.124Z,94585.56
2023-11-26T20:44:09.494Z,94583.22
2023-11-26T20:46:35.917Z,94580.22
2023-11-26T20:49:02.339Z,94577.34
2023-11-26T20:51:28.768Z,94559.81
2023-11-26T20:53:55.171Z,94563.13
2023-11-26T20:56:21.554Z,94553.13
2023-11-26T20:58:47.935Z,94555.06
2023-11-26T21:01:14.372Z,94545.47
2023-11-26T21:03:40.823Z,94534.66
2023-11-26T21:06:07.247Z,94539.31
2023-11-26T21:08:33.643Z,94537.94
2023-11-26T21:11:00.016Z,94536.31
2023-11-26T21:13:26.398Z,94525.47
2023-11-26T21:15:52.797Z,94521.66
2023-11-26T21:18:19.182Z,94519.88
2023-11-26T21:20:45.563Z,94516.16
2023-11-26T21:23:11.947Z,94522.88
2023-11-26T21:25:38.336Z,94517.53
2023-11-26T21:28:04.735Z,94509.69
2023-11-26T21:30:31.138Z,94513.25
2023-11-26T21:32:57.520Z,94515.31
2023-11-26T21:35:23.997Z,94517.25
2023-11-26T21:37:50.526Z,94516.13
2023-11-26T21:40:16.991Z,94523.00
2023-11-26T21:42:43.515Z,94508.91
2023-11-26T21:45:09.953Z,94505.63
2023-11-26T21:47:36.439Z,94493.28
2023-11-26T21:50:02.847Z,94493.72
2023-11-26T21:52:29.260Z,94493.59
2023-11-26T21:54:55.716Z,94487.28
2023-11-26T21:57:22.114Z,94487.56
2023-11-26T21:59:48.502Z,94492.06
2023-11-26T22:02:15.104Z,94484.69
2023-11-26T22:04:41.634Z,94495.75
2023-11-26T22:07:08.035Z,94483.72
2023-11-26T22:09:34.472Z,94479.75
2023-11-26T22:12:00.849Z,94478.53
2023-11-26T22:14:27.236Z,94475.09
2023-11-26T22:16:53.619Z,94473.09
2023-11-26T22:19:20.068Z,94471.56
2023-11-26T22:21:46.511Z,94482.50
2023-11-26T22:24:12.894Z,94472.09
2023-11-26T22:26:39.324Z,94469.78
2023-11-26T22:29:05.742Z,94471.78
2023-11-26T22:31:32.239Z,94470.97
2023-11-26T22:33:58.758Z,94472.09
2023-11-26T22:36:25.166Z,94473.31
2023-11-26T22:38:51.521Z,94473.06
2023-11-26T22:41:17.900Z,94472.94
2023-11-26T22:43:44.278Z,94478.97
2023-11-26T22:46:10.717Z,94476.22
2023-11-26T22:48:37.163Z,94480.47
2023-11-26T22:51:03.544Z,94479.25
2023-11-26T22:53:29.919Z,94475.13
2023-11-26T22:55:56.294Z,94466.09
2023-11-26T22:58:22.669Z,94468.41
2023-11-26T23:00:49.128Z,94462.53
2023-11-26T23:03:15.595Z,94463.06
2023-11-26T23:05:42.060Z,94462.81
2023-11-26T23:08:08.456Z,94462.81
2023-11-26T23:10:34.901Z,94465.28
2023-11-26T23:13:01.309Z,94472.38
2023-11-26T23:15:27.700Z,94467.31
2023-11-26T23:17:54.185Z,94466.91
2023-11-26T23:20:20.610Z,94461.16
2023-11-26T23:22:46.996Z,94457.63
2023-11-26T23:25:13.416Z,94450.34
2023-11-26T23:27:39.907Z,94455.00
2023-11-26T23:30:06.330Z,94448.53
2023-11-26T23:32:32.741Z,94446.06
2023-11-26T23:34:59.113Z,94452.66
2023-11-26T23:37:25.492Z,94439.34
2023-11-26T23:39:51.908Z,94436.09
2023-11-26T23:42:18.320Z,94427.72
2023-11-26T23:44:44.685Z,94422.63
2023-11-26T23:47:11.056Z,94422.94
2023-11-26T23:49:37.422Z,94421.66
2023-11-26T23:52:03.810Z,94418.41
2023-11-26T23:54:30.210Z,94414.31
2023-11-26T23:56:56.589Z,94415.50
2023-11-26T23:59:22.970Z,94414.56
